Time;durP1;ratioP1;P1;durP2;ratioP2;P2;SDS_P1;SDS_P2;PMS_P1;PMS_P2;Temp;Humidity;BMP_temperature;BMP_pressure;BME280_temperature;BME280_humidity;BME280_pressure;Samples;Min_cycle;Max_cycle;Signal;HPM_P1;HPM_P2
2022/09/17 00:01:33;;;;;;;2.35;0.65;;;;;;;25.50;34.47;101983.63;5071277;28;20461;-48
2022/09/17 00:04:03;;;;;;;2.15;0.65;;;;;;;25.45;34.59;101988.78;5070812;28;20024;-49
2022/09/17 00:06:33;;;;;;;2.58;0.80;;;;;;;25.44;34.52;101984.38;5071110;28;20021;-49
2022/09/17 00:09:02;;;;;;;2.50;0.80;;;;;;;25.42;34.77;101972.97;5066277;28;20028;-47
2022/09/17 00:11:32;;;;;;;1.95;0.55;;;;;;;25.41;34.83;101979.91;5077951;28;20063;-47
2022/09/17 00:14:02;;;;;;;2.65;0.90;;;;;;;25.45;34.76;101986.16;5066790;28;20435;-47
2022/09/17 00:16:38;;;;;;;1.40;0.60;;;;;;;25.47;34.74;101984.47;5070227;28;20032;-49
2022/09/17 00:19:09;;;;;;;1.30;0.60;;;;;;;25.52;34.85;101989.81;5070850;28;20437;-47
2022/09/17 00:21:37;;;;;;;2.40;0.63;;;;;;;25.42;34.65;101983.47;5049512;28;20082;-49
2022/09/17 00:24:06;;;;;;;6.53;0.80;;;;;;;25.40;34.92;101987.75;5059072;28;20024;-47
2022/09/17 00:26:36;;;;;;;2.92;0.73;;;;;;;25.47;34.82;101987.09;5074388;28;20028;-46
2022/09/17 00:29:05;;;;;;;2.97;1.00;;;;;;;25.42;34.98;101986.97;5070531;28;20068;-48
2022/09/17 00:31:33;;;;;;;1.55;0.63;;;;;;;25.45;34.60;101984.41;5075242;28;20032;-48
2022/09/17 00:34:02;;;;;;;1.50;0.50;;;;;;;25.38;34.58;101978.94;5070816;28;20612;-46
2022/09/17 00:36:31;;;;;;;3.05;0.75;;;;;;;25.38;34.58;101981.56;5070145;28;20550;-47
2022/09/17 00:39:00;;;;;;;1.92;0.52;;;;;;;25.36;34.68;101978.94;5063687;28;20056;-48
2022/09/17 00:41:31;;;;;;;1.92;0.40;;;;;;;25.33;34.89;101971.84;5069000;28;20028;-49
2022/09/17 00:44:02;;;;;;;3.35;0.70;;;;;;;25.36;34.90;101971.06;5063807;28;20102;-46
2022/09/17 00:46:42;;;;;;;3.40;0.90;;;;;;;25.33;35.17;101971.84;5070475;28;20070;-50
2022/09/17 00:49:18;;;;;;;1.92;0.80;;;;;;;25.29;34.67;101966.50;5075433;28;20028;-48
2022/09/17 00:51:56;;;;;;;1.65;0.57;;;;;;;25.33;34.83;101971.84;5074438;28;20038;-48
2022/09/17 00:54:25;;;;;;;1.77;0.75;;;;;;;25.32;34.96;101975.31;5066353;28;20166;-49
2022/09/17 00:56:53;;;;;;;2.80;0.88;;;;;;;25.26;34.77;101969.94;5072882;28;20032;-47
2022/09/17 00:59:22;;;;;;;2.28;0.80;;;;;;;25.19;34.90;101968.00;5067972;28;20024;-46
2022/09/17 01:01:51;;;;;;;2.45;0.63;;;;;;;25.25;34.98;101981.28;5070246;28;20020;-46
2022/09/17 01:04:22;;;;;;;1.52;0.60;;;;;;;25.24;34.73;101983.88;5075208;28;20035;-49
2022/09/17 01:07:17;;;;;;;1.80;0.60;;;;;;;25.21;34.96;101978.56;5071485;28;20466;-47
2022/09/17 01:09:45;;;;;;;;;;;;;;;25.29;34.90;101980.53;5046449;28;20032;-49
2022/09/17 01:12:18;;;;;;;3.88;0.80;;;;;;;25.29;34.72;101979.63;5069938;28;19994;-50
2022/09/17 01:15:06;;;;;;;2.25;0.80;;;;;;;25.21;34.86;101986.44;5063355;28;20387;-47
2022/09/17 01:17:59;;;;;;;7.07;0.75;;;;;;;25.16;34.91;101981.06;5063329;28;20127;-48
2022/09/17 01:20:53;;;;;;;3.53;0.90;;;;;;;25.14;34.81;101986.28;5062556;28;20496;-47
2022/09/17 01:23:30;;;;;;;2.40;0.70;;;;;;;25.14;34.87;101983.66;5055896;28;20460;-47
2022/09/17 01:26:19;;;;;;;2.33;0.47;;;;;;;25.13;35.13;101979.25;5072291;28;20040;-48
2022/09/17 01:28:58;;;;;;;2.05;0.57;;;;;;;25.12;35.20;101979.22;5063472;28;20444;-50
2022/09/17 01:31:57;;;;;;;2.15;0.70;;;;;;;25.17;34.89;101982.84;5073883;28;20028;-48
2022/09/17 01:34:34;;;;;;;2.17;0.60;;;;;;;25.14;35.07;101988.03;5063979;28;20044;-50
2022/09/17 01:37:15;;;;;;;2.13;0.70;;;;;;;25.12;34.82;101977.47;5052676;28;20036;-49
2022/09/17 01:39:47;;;;;;;1.00;0.52;;;;;;;25.12;35.10;101984.50;5051433;28;20033;-46
2022/09/17 01:42:30;;;;;;;4.93;0.70;;;;;;;25.07;34.89;101988.72;5050945;28;20047;-49
2022/09/17 01:45:05;;;;;;;4.07;0.95;;;;;;;25.10;35.09;101980.94;5072041;28;20403;-49
2022/09/17 01:47:38;;;;;;;2.60;0.75;;;;;;;25.09;34.98;101982.66;5051931;28;20037;-48
2022/09/17 01:50:12;;;;;;;3.17;0.98;;;;;;;25.03;35.11;101983.41;5073072;28;20498;-51
2022/09/17 01:52:42;;;;;;;3.50;0.65;;;;;;;25.01;35.11;101977.22;5057484;28;20491;-49
2022/09/17 01:55:15;;;;;;;2.05;0.65;;;;;;;24.98;35.17;101987.66;5056928;28;20471;-48
2022/09/17 01:57:45;;;;;;;2.38;0.95;;;;;;;25.02;34.90;101973.75;5075006;28;20044;-48
2022/09/17 02:00:16;;;;;;;2.08;1.00;;;;;;;24.99;35.03;101976.28;5074670;28;20432;-50
2022/09/17 02:02:49;;;;;;;2.00;0.80;;;;;;;25.00;35.12;101983.31;5079672;28;20056;-49
2022/09/17 02:05:22;;;;;;;3.30;0.82;;;;;;;24.97;35.06;101983.25;5066851;28;20043;-46
2022/09/17 02:07:56;;;;;;;3.03;0.85;;;;;;;24.96;35.19;101991.09;5058331;28;20111;-46
2022/09/17 02:10:30;;;;;;;1.65;0.60;;;;;;;24.96;35.04;101976.25;5055615;28;20958;-48
2022/09/17 02:13:07;;;;;;;3.67;1.02;;;;;;;24.95;34.84;101981.44;5078634;28;20123;-48
2022/09/17 02:15:41;;;;;;;2.83;0.82;;;;;;;24.97;34.81;101978.00;5077527;28;20113;-48
2022/09/17 02:18:22;;;;;;;3.30;1.00;;;;;;;24.84;34.81;101975.91;5072960;28;20501;-49
2022/09/17 02:20:56;;;;;;;1.98;0.73;;;;;;;24.86;34.89;101971.59;5068487;28;20090;-49
2022/09/17 02:23:30;;;;;;;2.13;0.70;;;;;;;24.88;35.28;101983.00;5050022;28;20039;-49
2022/09/17 02:26:07;;;;;;;4.32;0.90;;;;;;;24.86;34.99;101983.00;5071897;28;20037;-47
2022/09/17 02:28:42;;;;;;;1.83;0.65;;;;;;;24.83;35.08;101982.00;5050615;28;20134;-48
2022/09/17 02:31:11;;;;;;;2.20;0.75;;;;;;;24.89;35.01;101982.16;5053810;28;20025;-47
2022/09/17 02:33:43;;;;;;;2.60;0.70;;;;;;;24.85;35.07;101985.56;5054884;28;20032;-49
2022/09/17 02:36:12;;;;;;;1.98;0.60;;;;;;;24.84;35.19;101989.03;5047194;28;20029;-49
2022/09/17 02:38:44;;;;;;;3.15;0.90;;;;;;;24.83;35.09;101988.16;5052369;28;20115;-50
2022/09/17 02:41:25;;;;;;;1.63;0.68;;;;;;;24.82;35.22;101991.63;5046849;28;20033;-48
2022/09/17 02:44:03;;;;;;;1.95;0.57;;;;;;;24.83;35.03;101992.50;5052935;28;20610;-49
2022/09/17 02:46:50;;;;;;;2.17;0.80;;;;;;;24.82;35.06;101996.00;5055706;28;20377;-50
2022/09/17 02:49:35;;;;;;;3.13;0.85;;;;;;;24.79;35.30;101986.28;5045852;28;20033;-47
2022/09/17 02:52:22;;;;;;;1.75;0.77;;;;;;;24.79;35.39;101985.41;5050768;28;20539;-50
2022/09/17 02:55:16;;;;;;;3.33;1.02;;;;;;;24.75;35.36;101986.19;5052349;28;20059;-48
2022/09/17 02:58:02;;;;;;;5.05;1.20;;;;;;;24.77;35.20;101984.50;5048554;28;20050;-50
2022/09/17 03:00:31;;;;;;;3.50;1.33;;;;;;;24.79;35.30;101982.78;5048629;28;20391;-49
2022/09/17 03:03:06;;;;;;;1.73;0.85;;;;;;;24.70;35.29;101986.94;5050718;28;20115;-51
2022/09/17 03:05:35;;;;;;;2.15;0.80;;;;;;;24.70;35.69;101986.94;5055598;28;20044;-48
2022/09/17 03:08:03;;;;;;;3.03;1.05;;;;;;;24.68;35.70;101990.34;5049452;28;20033;-48
2022/09/17 03:10:32;;;;;;;2.65;0.70;;;;;;;24.68;35.61;101980.72;5049372;28;20040;-48
2022/09/17 03:13:01;;;;;;;5.65;1.25;;;;;;;24.69;35.49;101977.25;5050791;28;20043;-46
2022/09/17 03:15:29;;;;;;;3.03;0.80;;;;;;;24.69;35.64;101968.50;5053600;28;20032;-48
2022/09/17 03:17:58;;;;;;;3.58;1.10;;;;;;;24.69;35.26;101982.50;5052020;28;20023;-50
2022/09/17 03:20:27;;;;;;;2.65;0.95;;;;;;;24.69;35.42;101985.13;5052724;28;20115;-50
2022/09/17 03:22:55;;;;;;;4.13;0.82;;;;;;;24.70;35.59;101989.56;5055423;28;20036;-48
2022/09/17 03:25:24;;;;;;;1.33;0.60;;;;;;;24.68;35.70;101978.09;5052426;28;20155;-47
2022/09/17 03:27:52;;;;;;;4.40;1.17;;;;;;;24.67;35.48;101978.94;5062358;28;20048;-48
2022/09/17 03:30:21;;;;;;;2.78;1.02;;;;;;;24.73;35.41;101981.78;5052148;28;20536;-47
2022/09/17 03:32:49;;;;;;;3.08;1.00;;;;;;;24.70;35.31;101979.06;5076728;28;20119;-48
2022/09/17 03:35:18;;;;;;;3.60;0.75;;;;;;;24.68;35.84;101982.47;5073739;28;20048;-46
2022/09/17 03:37:46;;;;;;;3.83;1.10;;;;;;;24.67;35.44;101984.19;5071227;28;20106;-46
2022/09/17 03:40:15;;;;;;;2.92;1.05;;;;;;;24.66;35.41;101984.16;5071104;28;20055;-50
2022/09/17 03:42:44;;;;;;;1.85;1.08;;;;;;;24.66;35.54;101992.91;5076209;28;20028;-51
2022/09/17 03:45:13;;;;;;;3.25;1.00;;;;;;;24.65;35.57;101980.69;5076672;28;20573;-46
2022/09/17 03:47:41;;;;;;;1.92;0.60;;;;;;;24.55;35.80;101965.53;5069644;28;20240;-48
2022/09/17 03:50:11;;;;;;;3.90;0.90;;;;;;;24.64;35.72;101981.53;5076756;28;20475;-49
2022/09/17 03:52:39;;;;;;;2.88;0.73;;;;;;;24.63;35.62;101984.09;5069941;28;20067;-46
2022/09/17 03:55:07;;;;;;;2.53;1.08;;;;;;;24.66;35.39;101990.28;5070051;28;20060;-47
2022/09/17 03:57:36;;;;;;;2.17;0.70;;;;;;;24.63;35.87;101987.63;5070334;28;20036;-49
2022/09/17 04:00:05;;;;;;;4.72;1.27;;;;;;;24.68;35.70;101987.72;5071438;28;20028;-51
2022/09/17 04:02:33;;;;;;;2.42;1.00;;;;;;;24.73;35.66;101994.03;5064528;28;20040;-51
2022/09/17 04:05:01;;;;;;;1.88;0.70;;;;;;;24.64;35.51;101988.50;5070273;28;20089;-51
2022/09/17 04:07:29;;;;;;;2.95;0.65;;;;;;;24.71;35.86;101987.84;5070541;28;20078;-46
2022/09/17 04:09:58;;;;;;;2.45;0.80;;;;;;;24.68;35.80;101999.09;5076862;28;20066;-48
2022/09/17 04:12:27;;;;;;;3.30;1.00;;;;;;;24.64;35.80;101983.25;5070240;28;20031;-46
2022/09/17 04:14:55;;;;;;;2.22;0.75;;;;;;;24.67;35.93;102001.69;5074784;28;20063;-46
2022/09/17 04:17:23;;;;;;;2.53;1.00;;;;;;;24.68;35.93;101998.22;5069884;28;20386;-47
2022/09/17 04:19:52;;;;;;;3.97;1.10;;;;;;;24.68;35.81;102003.47;5071362;28;20031;-47
2022/09/17 04:22:21;;;;;;;2.15;0.70;;;;;;;24.69;35.67;102008.75;5070794;28;20486;-46
2022/09/17 04:24:50;;;;;;;4.35;0.95;;;;;;;24.66;35.70;102002.53;5071233;28;20040;-46
2022/09/17 04:27:18;;;;;;;1.15;0.60;;;;;;;24.69;35.70;101998.25;5071247;28;20048;-47
2022/09/17 04:29:47;;;;;;;2.75;0.90;;;;;;;24.69;35.55;102005.25;5064890;28;20482;-46
2022/09/17 04:32:15;;;;;;;3.10;0.90;;;;;;;24.71;36.02;102003.59;5064916;28;20033;-46
2022/09/17 04:34:44;;;;;;;2.72;0.63;;;;;;;24.73;35.98;102001.91;5069420;28;20399;-46
2022/09/17 04:37:13;;;;;;;2.10;0.77;;;;;;;24.71;35.75;101998.34;5072040;28;20028;-46
2022/09/17 04:39:41;;;;;;;2.47;0.68;;;;;;;24.71;35.70;101999.22;5071943;28;20031;-46
2022/09/17 04:42:10;;;;;;;0.88;0.40;;;;;;;24.66;35.71;101994.66;5075338;28;20115;-46
2022/09/17 04:44:38;;;;;;;1.85;0.70;;;;;;;24.72;35.81;102006.25;5069343;28;20034;-51
2022/09/17 04:47:07;;;;;;;1.30;0.50;;;;;;;24.72;36.05;102008.00;5070837;28;20090;-48
2022/09/17 04:49:35;;;;;;;3.22;0.90;;;;;;;24.62;36.34;102001.56;5065276;28;20044;-51
2022/09/17 04:52:04;;;;;;;1.98;0.63;;;;;;;24.66;36.01;102008.66;5070088;28;20028;-48
2022/09/17 04:54:33;;;;;;;1.92;0.60;;;;;;;24.68;36.26;102009.59;5068029;28;20035;-46
2022/09/17 04:57:01;;;;;;;2.05;0.70;;;;;;;24.69;35.84;102019.25;5069492;28;20111;-52
2022/09/17 04:59:30;;;;;;;1.95;0.80;;;;;;;24.69;36.03;102015.75;5067363;28;20024;-47
2022/09/17 05:01:58;;;;;;;1.25;0.60;;;;;;;24.65;36.07;102017.41;5069637;28;20994;-50
2022/09/17 05:04:27;;;;;;;2.33;0.60;;;;;;;24.61;35.97;101998.88;5066143;28;20123;-46
2022/09/17 05:06:56;;;;;;;3.50;0.55;;;;;;;24.66;36.03;102013.03;5070448;28;20039;-46
2022/09/17 05:09:24;;;;;;;1.70;0.60;;;;;;;24.63;36.03;102011.22;5073226;28;20116;-50
2022/09/17 05:11:53;;;;;;;1.10;0.40;;;;;;;24.65;35.98;102020.03;5073191;28;20545;-47
2022/09/17 05:14:21;;;;;;;2.22;0.70;;;;;;;24.71;36.07;102014.97;5073129;28;20975;-51
2022/09/17 05:16:50;;;;;;;1.25;0.52;;;;;;;24.65;36.24;102017.41;5069182;28;20028;-48
2022/09/17 05:19:18;;;;;;;1.90;0.45;;;;;;;24.64;36.32;102023.50;5067118;28;20044;-48
2022/09/17 05:21:47;;;;;;;1.00;0.50;;;;;;;24.68;36.07;102032.34;5070317;28;20110;-49
2022/09/17 05:24:16;;;;;;;1.50;0.60;;;;;;;24.63;36.08;102020.81;5069668;28;20032;-49
2022/09/17 05:26:44;;;;;;;1.02;0.40;;;;;;;24.63;36.28;102016.47;5077918;28;20471;-48
2022/09/17 05:29:12;;;;;;;3.10;1.05;;;;;;;24.61;36.42;102030.38;5077714;28;20113;-47
2022/09/17 05:31:41;;;;;;;1.73;0.50;;;;;;;24.63;36.34;102033.94;5078142;28;20035;-51
2022/09/17 05:34:09;;;;;;;1.67;0.60;;;;;;;24.60;36.47;102031.22;5073395;28;20028;-48
2022/09/17 05:36:38;;;;;;;1.30;0.60;;;;;;;24.58;36.43;102026.81;5071306;28;20506;-48
2022/09/17 05:39:06;;;;;;;2.10;0.70;;;;;;;24.59;36.09;102040.84;5078067;28;21108;-46
2022/09/17 05:41:35;;;;;;;2.85;0.60;;;;;;;24.56;36.34;102038.13;5078596;28;20066;-50
2022/09/17 05:44:03;;;;;;;2.55;0.73;;;;;;;24.63;36.25;102037.47;5078479;28;20024;-53
2022/09/17 05:46:31;;;;;;;1.88;0.52;;;;;;;24.60;36.11;102032.13;5066426;28;20036;-49
2022/09/17 05:49:00;;;;;;;1.15;0.60;;;;;;;24.63;36.08;102040.09;5073003;28;20032;-48
2022/09/17 05:51:27;;;;;;;2.28;0.63;;;;;;;24.67;36.43;102041.06;5066369;28;20025;-50
2022/09/17 05:53:56;;;;;;;2.40;0.88;;;;;;;24.64;36.28;102041.88;5078834;28;20090;-50
2022/09/17 05:56:24;;;;;;;1.55;0.45;;;;;;;24.64;36.15;102039.25;5071976;28;20028;-49
2022/09/17 05:58:56;;;;;;;3.83;1.02;;;;;;;24.54;36.54;102032.84;5048863;28;20119;-49
2022/09/17 06:01:25;;;;;;;3.28;0.73;;;;;;;24.65;36.50;102042.75;5072847;28;20267;-47
2022/09/17 06:03:53;;;;;;;4.53;0.70;;;;;;;24.67;36.13;102044.53;5073071;28;20024;-48
2022/09/17 06:06:21;;;;;;;2.95;0.43;;;;;;;24.58;36.19;102039.06;5060884;28;20277;-50
2022/09/17 06:08:50;;;;;;;3.38;0.70;;;;;;;24.68;36.26;102038.44;5073444;28;20031;-50
2022/09/17 06:11:18;;;;;;;4.93;1.10;;;;;;;24.62;36.61;102034.78;5079424;28;20032;-50
2022/09/17 06:13:48;;;;;;;1.52;0.75;;;;;;;24.60;36.29;102026.88;5072914;28;20042;-48
2022/09/17 06:16:17;;;;;;;2.85;0.88;;;;;;;24.65;36.28;102048.88;5073094;28;20024;-49
2022/09/17 06:18:45;;;;;;;1.88;0.70;;;;;;;24.61;36.53;102052.28;5074788;28;20016;-47
2022/09/17 06:21:14;;;;;;;3.03;1.00;;;;;;;24.54;36.70;102053.84;5073254;28;20021;-49
2022/09/17 06:23:42;;;;;;;4.00;1.05;;;;;;;24.57;36.45;102056.53;5073171;28;20029;-47
2022/09/17 06:26:11;;;;;;;2.03;0.52;;;;;;;24.55;36.32;102045.13;5073039;28;20025;-49
2022/09/17 06:28:38;;;;;;;1.90;0.85;;;;;;;24.62;36.19;102058.38;5073000;28;20788;-47
2022/09/17 06:31:09;;;;;;;7.00;1.33;;;;;;;24.66;36.18;102058.50;5066041;28;20035;-46
2022/09/17 06:33:37;;;;;;;4.07;0.77;;;;;;;24.64;36.45;102059.31;5077957;28;20111;-47
2022/09/17 06:36:09;;;;;;;2.28;0.88;;;;;;;24.66;36.24;102057.63;5055945;28;20028;-46
2022/09/17 06:38:38;;;;;;;5.57;0.93;;;;;;;24.68;36.24;102062.06;5076742;28;20024;-47
2022/09/17 06:41:06;;;;;;;1.77;0.63;;;;;;;24.69;36.29;102063.84;5055001;28;20028;-46
2022/09/17 06:43:36;;;;;;;2.60;0.60;;;;;;;24.69;36.43;102076.97;5070464;28;20536;-45
2022/09/17 06:46:06;;;;;;;1.50;0.50;;;;;;;24.75;36.38;102073.66;5071454;28;20055;-46
2022/09/17 06:48:35;;;;;;;4.55;1.13;;;;;;;24.75;36.41;102083.28;5072694;28;20036;-47
2022/09/17 06:51:06;;;;;;;3.75;1.02;;;;;;;24.67;36.81;102062.03;5075898;28;20051;-49
2022/09/17 06:53:35;;;;;;;2.63;0.75;;;;;;;24.84;36.50;102094.00;5054519;28;20399;-47
2022/09/17 06:56:04;;;;;;;3.05;1.00;;;;;;;24.84;36.53;102083.50;5047839;28;20490;-49
2022/09/17 06:58:32;;;;;;;4.00;0.90;;;;;;;24.84;36.39;102087.03;5078212;28;20027;-49
2022/09/17 07:01:01;;;;;;;2.58;0.75;;;;;;;24.82;36.45;102065.09;5071929;28;20028;-49
2022/09/17 07:03:30;;;;;;;1.23;0.60;;;;;;;24.95;36.29;102092.59;5066176;28;20032;-47
2022/09/17 07:05:59;;;;;;;2.65;0.55;;;;;;;24.98;36.60;102086.50;5072253;28;20140;-52
2022/09/17 07:08:26;;;;;;;3.58;0.60;;;;;;;24.98;36.58;102091.75;5072531;28;20090;-48
2022/09/17 07:10:59;;;;;;;5.50;1.50;;;;;;;24.95;36.61;102097.84;5074928;28;20380;-47
2022/09/17 07:13:27;;;;;;;5.13;1.13;;;;;;;24.92;36.76;102091.59;5072189;28;20094;-48
2022/09/17 07:15:57;;;;;;;5.97;1.27;;;;;;;24.91;36.57;102089.81;5065594;28;20029;-47
2022/09/17 07:18:26;;;;;;;5.55;0.98;;;;;;;24.88;36.83;102090.63;5065373;28;20135;-49
2022/09/17 07:20:55;;;;;;;6.28;0.70;;;;;;;24.93;36.50;102093.38;5065690;28;20105;-46
2022/09/17 07:23:24;;;;;;;4.22;1.08;;;;;;;24.95;36.65;102095.22;5070235;28;20047;-46
2022/09/17 07:25:52;;;;;;;6.93;0.90;;;;;;;25.02;36.42;102097.13;5072333;28;20028;-48
2022/09/17 07:28:21;;;;;;;3.38;0.90;;;;;;;24.99;36.24;102094.41;5074860;28;20154;-47
2022/09/17 07:30:50;;;;;;;3.13;0.95;;;;;;;24.85;36.68;102090.53;5066505;28;20028;-48
2022/09/17 07:33:22;;;;;;;3.97;0.90;;;;;;;24.92;36.50;102102.09;5073029;28;20467;-48
2022/09/17 07:36:01;;;;;;;6.30;1.08;;;;;;;24.93;36.62;102104.78;5069129;28;20089;-48
2022/09/17 07:38:31;;;;;;;1.63;0.55;;;;;;;24.96;36.29;102098.72;5066549;28;20021;-46
2022/09/17 07:41:01;;;;;;;10.77;0.90;;;;;;;25.00;36.37;102098.81;5045677;28;20092;-50
2022/09/17 07:43:32;;;;;;;1.88;0.63;;;;;;;25.01;36.21;102099.72;5069199;28;20028;-50
2022/09/17 07:46:01;;;;;;;4.60;0.80;;;;;;;25.06;36.11;102106.00;5066253;28;20028;-47
2022/09/17 07:48:30;;;;;;;1.77;0.35;;;;;;;25.08;35.92;102100.78;5068480;28;20120;-49
2022/09/17 07:50:58;;;;;;;4.60;1.25;;;;;;;25.07;35.83;102112.13;5068404;28;20021;-48
2022/09/17 07:53:27;;;;;;;5.40;0.95;;;;;;;25.08;35.68;102103.41;5050097;28;20119;-47
2022/09/17 07:55:58;;;;;;;6.28;1.20;;;;;;;25.09;35.98;102105.19;5050783;28;20033;-49
2022/09/17 07:58:33;;;;;;;2.67;0.60;;;;;;;25.09;35.58;102107.81;5066617;28;20028;-48
2022/09/17 08:01:02;;;;;;;;;;;;;;;25.11;35.81;102114.88;5064957;28;20030;-50
2022/09/17 08:03:30;;;;;;;1.55;0.60;;;;;;;25.13;35.86;102117.56;5071392;28;19923;-46
2022/09/17 08:06:11;;;;;;;7.93;1.50;;;;;;;25.08;35.84;102106.91;5066328;28;20090;-50
2022/09/17 08:08:40;;;;;;;5.70;0.52;;;;;;;25.16;35.63;102112.34;5068349;28;20036;-48
2022/09/17 08:11:11;;;;;;;1.20;0.47;;;;;;;25.18;35.38;102092.28;5070673;28;20113;-47
2022/09/17 08:13:40;;;;;;;2.17;0.60;;;;;;;25.12;35.48;102100.88;5068357;28;20131;-50
2022/09/17 08:16:12;;;;;;;1.98;0.60;;;;;;;25.12;35.69;102105.25;5050785;28;20032;-48
2022/09/17 08:18:41;;;;;;;4.93;1.20;;;;;;;25.22;35.34;102096.75;5068253;28;20110;-47
2022/09/17 08:21:10;;;;;;;1.45;0.70;;;;;;;25.18;34.64;102111.56;5070105;28;20020;-46
2022/09/17 08:23:40;;;;;;;5.32;0.90;;;;;;;25.16;35.00;102117.59;5066959;28;20032;-47
2022/09/17 08:26:11;;;;;;;4.15;0.60;;;;;;;25.20;35.09;102118.59;5066760;28;20037;-47
2022/09/17 08:28:40;;;;;;;2.22;0.50;;;;;;;25.20;34.13;102118.59;5048913;28;20060;-46
2022/09/17 08:31:08;;;;;;;6.40;1.00;;;;;;;25.13;34.31;102109.66;5068963;28;20063;-46
2022/09/17 08:33:39;;;;;;;4.35;1.05;;;;;;;25.20;34.49;102121.22;5070172;28;20403;-47
2022/09/17 08:36:08;;;;;;;3.75;0.70;;;;;;;25.13;33.46;102118.41;5050959;28;20699;-50
2022/09/17 08:38:37;;;;;;;2.85;0.80;;;;;;;25.25;33.19;102120.47;5068013;28;20025;-46
2022/09/17 08:41:24;;;;;;;1.52;0.50;;;;;;;25.31;34.11;102115.41;5067565;28;20036;-47
2022/09/17 08:44:18;;;;;;;1.77;0.60;;;;;;;25.25;34.03;102122.22;5042881;28;20040;-48
2022/09/17 08:47:06;;;;;;;4.03;0.90;;;;;;;25.24;33.22;102112.53;5057247;28;20064;-47
2022/09/17 08:49:48;;;;;;;2.35;0.95;;;;;;;25.26;33.58;102124.88;5069776;28;20040;-47
2022/09/17 08:52:28;;;;;;;2.38;0.63;;;;;;;25.32;33.88;102130.28;5068666;28;20028;-46
2022/09/17 08:55:07;;;;;;;3.80;0.50;;;;;;;25.38;33.79;102129.56;5066052;28;20024;-46
2022/09/17 08:57:55;;;;;;;2.78;0.90;;;;;;;25.41;32.97;102126.13;5066580;28;20487;-48
2022/09/17 09:00:23;;;;;;;1.25;0.60;;;;;;;25.33;32.35;102129.44;5063835;28;20051;-47
2022/09/17 09:03:14;;;;;;;3.00;0.70;;;;;;;25.38;32.96;102133.94;5048684;28;20475;-49
2022/09/17 09:05:49;;;;;;;1.98;0.50;;;;;;;25.32;33.29;102117.16;5063144;28;20155;-51
2022/09/17 09:08:18;;;;;;;;;;;;;;;25.44;32.69;102134.13;5068882;28;20025;-49
2022/09/17 09:10:51;;;;;;;2.33;0.60;;;;;;;25.45;32.82;102131.53;5048935;28;20344;-52
2022/09/17 09:13:21;;;;;;;2.28;0.52;;;;;;;25.37;32.10;102126.88;5049636;28;20155;-49
2022/09/17 09:16:06;;;;;;;5.72;0.50;;;;;;;25.43;32.10;102132.34;5051992;28;20032;-48
2022/09/17 09:18:37;;;;;;;2.38;0.43;;;;;;;25.51;31.71;102127.28;5051785;28;20032;-50
2022/09/17 09:21:26;;;;;;;3.00;0.70;;;;;;;25.51;31.50;102130.78;5070015;28;20035;-50
2022/09/17 09:23:57;;;;;;;1.05;0.40;;;;;;;25.47;33.07;102135.09;5069214;28;20032;-51
2022/09/17 09:26:57;;;;;;;3.00;0.63;;;;;;;25.43;32.72;102141.09;5066190;28;20084;-51
2022/09/17 09:29:57;;;;;;;5.90;0.85;;;;;;;25.45;32.74;102144.66;5066078;28;20078;-49
2022/09/17 09:32:45;;;;;;;0.98;0.50;;;;;;;25.45;32.36;102143.78;5053759;28;20041;-50
2022/09/17 09:35:28;;;;;;;8.52;0.57;;;;;;;25.44;32.20;102136.75;5059761;28;20426;-50
2022/09/17 09:37:59;;;;;;;2.00;0.55;;;;;;;25.42;32.48;102138.44;5048803;28;20038;-51
2022/09/17 09:40:56;;;;;;;2.53;0.60;;;;;;;25.41;31.44;102139.25;5046465;28;20036;-47
2022/09/17 09:43:42;;;;;;;0.95;0.45;;;;;;;25.46;31.69;102135.06;5067806;28;20036;-51
2022/09/17 09:46:23;;;;;;;3.65;0.60;;;;;;;25.43;32.38;102129.72;5047931;28;20094;-50
2022/09/17 09:49:19;;;;;;;3.53;0.50;;;;;;;25.45;32.78;102134.16;5068825;28;20025;-51
2022/09/17 09:52:04;;;;;;;1.67;0.50;;;;;;;25.46;32.30;102150.81;5058155;28;20045;-49
2022/09/17 09:54:58;;;;;;;3.28;0.45;;;;;;;25.48;32.31;102141.25;5070642;28;20042;-48
2022/09/17 09:57:38;;;;;;;2.80;0.50;;;;;;;25.48;32.05;102131.59;5045702;28;20028;-52
2022/09/17 10:00:27;;;;;;;3.95;0.60;;;;;;;25.47;30.58;102144.72;5069248;28;20029;-52
2022/09/17 10:03:16;;;;;;;1.80;0.52;;;;;;;25.45;31.74;102136.78;5065753;28;20546;-52
2022/09/17 10:05:54;;;;;;;3.05;0.70;;;;;;;25.44;32.05;102131.50;5069510;28;21291;-47
2022/09/17 10:08:23;;;;;;;2.60;0.32;;;;;;;25.49;31.78;102140.38;5067728;28;20032;-50
2022/09/17 10:11:01;;;;;;;2.50;0.60;;;;;;;25.50;32.04;102142.16;5071100;28;20025;-49
2022/09/17 10:13:31;;;;;;;1.58;0.43;;;;;;;25.49;31.80;102129.84;5068041;28;20406;-54
2022/09/17 10:16:17;;;;;;;2.65;0.43;;;;;;;25.49;32.39;102129.84;5068024;28;20028;-47
2022/09/17 10:18:47;;;;;;;1.42;0.50;;;;;;;25.51;31.30;102132.53;5070428;28;20429;-49
2022/09/17 10:21:20;;;;;;;2.33;0.50;;;;;;;25.44;31.27;102135.00;5066993;28;20044;-50
2022/09/17 10:23:48;;;;;;;3.05;0.57;;;;;;;25.46;31.19;102135.06;5069785;28;20102;-53
2022/09/17 10:26:36;;;;;;;2.00;0.73;;;;;;;25.38;31.26;102129.56;5071500;28;20054;-47
2022/09/17 10:29:06;;;;;;;1.75;0.60;;;;;;;25.40;31.44;102125.22;5070173;28;20051;-48
2022/09/17 10:31:53;;;;;;;2.60;0.47;;;;;;;25.41;31.63;102129.63;5051702;28;20028;-47
2022/09/17 10:34:23;;;;;;;3.10;0.43;;;;;;;25.39;30.78;102133.06;5049812;28;20119;-48
2022/09/17 10:36:51;;;;;;;4.00;0.70;;;;;;;25.39;30.35;102130.44;5071710;28;20051;-51
2022/09/17 10:39:36;;;;;;;10.45;0.60;;;;;;;25.41;31.09;102126.13;5068247;28;20025;-46
2022/09/17 10:42:11;;;;;;;2.08;0.50;;;;;;;25.43;30.88;102129.72;5067439;28;20177;-51
2022/09/17 10:44:50;;;;;;;1.55;0.40;;;;;;;25.44;30.67;102127.13;5049633;28;20032;-47
2022/09/17 10:47:37;;;;;;;1.55;0.43;;;;;;;25.48;30.97;102122.84;5072144;28;20040;-49
2022/09/17 10:50:16;;;;;;;1.65;0.45;;;;;;;25.48;30.77;102130.75;5050207;28;20403;-52
2022/09/17 10:52:50;;;;;;;2.05;0.30;;;;;;;25.51;31.31;102120.28;5052426;28;20033;-47
2022/09/17 10:55:22;;;;;;;1.13;0.30;;;;;;;25.54;31.04;102116.84;5051131;28;20043;-48
2022/09/17 10:58:08;;;;;;;2.28;0.50;;;;;;;25.54;31.21;102106.34;5068663;28;20090;-47
2022/09/17 11:01:14;;;;;;;3.25;0.55;;;;;;;25.57;30.98;102106.41;5060327;28;21004;-47
2022/09/17 11:04:20;;;;;;;1.10;0.40;;;;;;;25.54;31.21;102112.47;5061399;28;20048;-47
2022/09/17 11:07:11;;;;;;;2.30;0.30;;;;;;;25.57;31.45;102109.03;5064136;28;20067;-52
2022/09/17 11:10:06;;;;;;;2.55;0.52;;;;;;;25.54;31.47;102108.97;5053528;28;20115;-53
2022/09/17 11:12:57;;;;;;;4.22;0.43;;;;;;;25.44;31.80;102092.97;5064511;28;20047;-52
2022/09/17 11:15:35;;;;;;;1.50;0.50;;;;;;;25.55;31.37;102101.13;5064090;28;20049;-50
2022/09/17 11:18:03;;;;;;;4.68;0.55;;;;;;;25.53;29.77;102115.06;5068996;28;20387;-49
2022/09/17 11:20:53;;;;;;;2.28;0.55;;;;;;;25.54;31.50;102114.22;5069201;28;20044;-48
2022/09/17 11:23:21;;;;;;;0.70;0.40;;;;;;;25.60;31.05;102106.47;5061201;28;20047;-52
2022/09/17 11:26:00;;;;;;;0.93;0.43;;;;;;;25.53;31.51;102113.31;5068360;28;20024;-49
2022/09/17 11:28:48;;;;;;;2.03;0.57;;;;;;;25.54;30.21;102107.22;5050536;28;20051;-51
2022/09/17 11:31:20;;;;;;;2.28;0.68;;;;;;;25.58;30.10;102101.19;5057383;28;20143;-49
2022/09/17 11:34:15;;;;;;;3.05;0.52;;;;;;;25.61;31.11;102101.28;5067306;28;20036;-50
2022/09/17 11:37:02;;;;;;;2.33;0.40;;;;;;;25.60;31.02;102103.84;5061952;28;20043;-50
2022/09/17 11:39:54;;;;;;;2.30;0.50;;;;;;;25.56;31.40;102096.78;5064158;28;20036;-51
2022/09/17 11:42:45;;;;;;;4.32;1.25;;;;;;;25.60;31.60;102094.25;5067874;28;20028;-47
2022/09/17 11:45:18;;;;;;;7.95;2.20;;;;;;;25.62;31.01;102086.38;5067337;28;20040;-51
2022/09/17 11:47:58;;;;;;;12.60;3.50;;;;;;;25.60;31.50;102075.84;5049551;28;20496;-53
2022/09/17 11:50:30;;;;;;;22.40;5.47;;;;;;;25.60;31.54;102081.09;5066400;28;20036;-49
2022/09/17 11:53:16;;;;;;;12.95;3.65;;;;;;;25.65;31.12;102075.06;5064622;28;20103;-52
2022/09/17 11:56:22;;;;;;;24.50;5.47;;;;;;;25.64;28.55;102076.81;5066254;28;20124;-52
2022/09/17 11:59:13;;;;;;;15.77;5.25;;;;;;;25.63;30.44;102083.81;5064003;28;20044;-47